sensor_id;sensor_type;location;lat;lon;timestamp;pressure;altitude;pressure_sealevel;temperature;humidity
32735;BME280;19112;51.076;3.706;2023-09-30T00:00:40;102022.66;;;14.21;77.24
32735;BME280;19112;51.076;3.706;2023-09-30T00:03:11;101888.56;;;13.42;77.32
32735;BME280;19112;51.076;3.706;2023-09-30T00:05:44;102423.09;;;16.38;77.56
32735;BME280;19112;51.076;3.706;2023-09-30T00:08:28;101985.84;;;13.79;77.35
32735;BME280;19112;51.076;3.706;2023-09-30T00:11:00;101718.47;;;12.17;77.26
32735;BME280;19112;51.076;3.706;2023-09-30T00:13:34;102004.69;;;13.88;77.45
32735;BME280;19112;51.076;3.706;2023-09-30T00:16:06;101898.34;;;13.22;77.43
32735;BME280;19112;51.076;3.706;2023-09-30T00:18:38;102024.72;;;14.05;77.89
32735;BME280;19112;51.076;3.706;2023-09-30T00:21:14;102021.63;;;13.93;77.83
32735;BME280;19112;51.076;3.706;2023-09-30T00:23:44;101866.75;;;13.01;77.97
32735;BME280;19112;51.076;3.706;2023-09-30T00:26:15;102050.63;;;13.92;77.69
32735;BME280;19112;51.076;3.706;2023-09-30T00:28:45;101926.34;;;13.41;77.94
32735;BME280;19112;51.076;3.706;2023-09-30T00:31:23;102168.44;;;14.55;78.22
32735;BME280;19112;51.076;3.706;2023-09-30T00:33:52;102050.44;;;13.87;78.35
32735;BME280;19112;51.076;3.706;2023-09-30T00:36:21;102134.09;;;14.55;78.16
32735;BME280;19112;51.076;3.706;2023-09-30T00:38:57;102419.75;;;15.94;78.20
32735;BME280;19112;51.076;3.706;2023-09-30T00:41:24;102043.59;;;13.70;78.03
32735;BME280;19112;51.076;3.706;2023-09-30T00:44:02;101968.31;;;13.57;78.06
32735;BME280;19112;51.076;3.706;2023-09-30T00:46:37;102041.56;;;13.85;78.21
32735;BME280;19112;51.076;3.706;2023-09-30T00:49:45;101996.44;;;13.56;78.05
32735;BME280;19112;51.076;3.706;2023-09-30T00:52:19;101960.81;;;13.23;78.24
32735;BME280;19112;51.076;3.706;2023-09-30T00:54:57;102065.94;;;13.79;78.68
32735;BME280;19112;51.076;3.706;2023-09-30T00:57:35;102086.16;;;13.79;78.51
32735;BME280;19112;51.076;3.706;2023-09-30T01:00:20;101946.59;;;13.21;78.36
32735;BME280;19112;51.076;3.706;2023-09-30T01:02:54;101738.25;;;11.86;78.40
32735;BME280;19112;51.076;3.706;2023-09-30T01:05:31;102457.94;;;16.00;78.73
32735;BME280;19112;51.076;3.706;2023-09-30T01:08:29;101745.00;;;12.00;78.08
32735;BME280;19112;51.076;3.706;2023-09-30T01:10:56;102049.91;;;13.52;78.08
32735;BME280;19112;51.076;3.706;2023-09-30T01:13:38;101840.91;;;12.49;78.22
32735;BME280;19112;51.076;3.706;2023-09-30T01:16:08;102489.41;;;15.92;78.53
32735;BME280;19112;51.076;3.706;2023-09-30T01:18:48;102080.53;;;13.70;78.29
32735;BME280;19112;51.076;3.706;2023-09-30T01:21:28;102468.34;;;15.95;78.36
32735;BME280;19112;51.076;3.706;2023-09-30T01:24:08;102063.22;;;13.33;78.10
32735;BME280;19112;51.076;3.706;2023-09-30T01:26:38;102087.69;;;13.51;77.88
32735;BME280;19112;51.076;3.706;2023-09-30T01:29:11;102476.13;;;15.90;78.15
32735;BME280;19112;51.076;3.706;2023-09-30T01:31:40;102124.88;;;13.78;77.79
32735;BME280;19112;51.076;3.706;2023-09-30T01:34:30;102025.19;;;13.28;77.78
32735;BME280;19112;51.076;3.706;2023-09-30T01:36:57;101846.31;;;12.31;77.85
32735;BME280;19112;51.076;3.706;2023-09-30T01:39:25;101997.34;;;13.15;77.83
32735;BME280;19112;51.076;3.706;2023-09-30T01:42:16;102077.84;;;13.47;77.89
32735;BME280;19112;51.076;3.706;2023-09-30T01:45:11;102464.41;;;15.84;77.78
32735;BME280;19112;51.076;3.706;2023-09-30T01:47:39;102473.59;;;15.71;77.84
32735;BME280;19112;51.076;3.706;2023-09-30T01:50:10;101964.72;;;12.70;77.77
32735;BME280;19112;51.076;3.706;2023-09-30T01:52:43;101990.75;;;12.83;77.68
32735;BME280;19112;51.076;3.706;2023-09-30T01:55:16;102058.22;;;13.41;77.74
32735;BME280;19112;51.076;3.706;2023-09-30T01:57:47;102264.78;;;14.63;77.84
32735;BME280;19112;51.076;3.706;2023-09-30T02:00:14;102362.22;;;15.20;77.74
32735;BME280;19112;51.076;3.706;2023-09-30T02:02:46;102483.97;;;15.65;78.10
32735;BME280;19112;51.076;3.706;2023-09-30T02:05:23;102462.78;;;15.65;78.23
32735;BME280;19112;51.076;3.706;2023-09-30T02:07:54;102463.41;;;15.59;78.34
32735;BME280;19112;51.076;3.706;2023-09-30T02:10:24;101883.78;;;12.04;78.21
32735;BME280;19112;51.076;3.706;2023-09-30T02:12:51;102028.75;;;12.88;78.37
32735;BME280;19112;51.076;3.706;2023-09-30T02:15:45;102028.09;;;13.15;78.33
32735;BME280;19112;51.076;3.706;2023-09-30T02:18:18;102476.38;;;15.74;78.81
32735;BME280;19112;51.076;3.706;2023-09-30T02:20:46;102023.44;;;13.07;78.47
32735;BME280;19112;51.076;3.706;2023-09-30T02:23:19;102108.59;;;13.47;78.43
32735;BME280;19112;51.076;3.706;2023-09-30T02:26:07;102028.00;;;13.11;78.00
32735;BME280;19112;51.076;3.706;2023-09-30T02:28:33;101890.94;;;12.28;77.70
32735;BME280;19112;51.076;3.706;2023-09-30T02:31:00;101909.34;;;12.47;77.85
32735;BME280;19112;51.076;3.706;2023-09-30T02:33:36;102514.53;;;15.79;78.38
32735;BME280;19112;51.076;3.706;2023-09-30T02:36:15;101844.41;;;12.07;77.93
32735;BME280;19112;51.076;3.706;2023-09-30T02:38:42;102058.63;;;13.50;78.26
32735;BME280;19112;51.076;3.706;2023-09-30T02:41:20;102045.44;;;13.29;78.20
32735;BME280;19112;51.076;3.706;2023-09-30T02:44:07;102334.97;;;15.23;78.46
32735;BME280;19112;51.076;3.706;2023-09-30T02:46:39;102083.75;;;13.62;78.21
32735;BME280;19112;51.076;3.706;2023-09-30T02:49:12;102477.75;;;15.87;78.70
32735;BME280;19112;51.076;3.706;2023-09-30T02:51:47;101971.28;;;13.00;78.46
32735;BME280;19112;51.076;3.706;2023-09-30T02:54:36;102306.97;;;15.05;78.49
32735;BME280;19112;51.076;3.706;2023-09-30T02:57:04;102033.72;;;13.43;78.71
32735;BME280;19112;51.076;3.706;2023-09-30T02:59:44;102073.34;;;13.66;78.43
32735;BME280;19112;51.076;3.706;2023-09-30T03:02:36;102038.16;;;13.44;78.20
32735;BME280;19112;51.076;3.706;2023-09-30T03:05:05;102073.19;;;13.62;78.32
32735;BME280;19112;51.076;3.706;2023-09-30T03:07:44;102069.28;;;13.53;78.27
32735;BME280;19112;51.076;3.706;2023-09-30T03:10:11;101976.09;;;13.10;78.43
32735;BME280;19112;51.076;3.706;2023-09-30T03:12:43;102451.88;;;15.80;78.56
32735;BME280;19112;51.076;3.706;2023-09-30T03:15:10;102488.91;;;15.78;78.48
32735;BME280;19112;51.076;3.706;2023-09-30T03:17:36;101925.91;;;12.66;78.22
32735;BME280;19112;51.076;3.706;2023-09-30T03:20:11;101915.25;;;12.63;78.08
32735;BME280;19112;51.076;3.706;2023-09-30T03:22:49;102081.13;;;13.42;77.92
32735;BME280;19112;51.076;3.706;2023-09-30T03:25:17;102503.47;;;15.67;78.42
32735;BME280;19112;51.076;3.706;2023-09-30T03:27:52;102446.06;;;15.66;78.41
32735;BME280;19112;51.076;3.706;2023-09-30T03:30:24;102034.81;;;13.06;78.29
32735;BME280;19112;51.076;3.706;2023-09-30T03:32:59;102459.19;;;15.63;78.32
32735;BME280;19112;51.076;3.706;2023-09-30T03:35:33;102346.75;;;14.86;78.29
32735;BME280;19112;51.076;3.706;2023-09-30T03:38:19;102076.66;;;13.39;78.14
32735;BME280;19112;51.076;3.706;2023-09-30T03:40:50;101998.84;;;12.88;78.18
32735;BME280;19112;51.076;3.706;2023-09-30T03:43:17;101952.38;;;12.69;78.00
32735;BME280;19112;51.076;3.706;2023-09-30T03:45:48;102056.84;;;13.28;78.27
32735;BME280;19112;51.076;3.706;2023-09-30T03:48:18;102039.44;;;12.91;78.17
32735;BME280;19112;51.076;3.706;2023-09-30T03:50:47;102412.69;;;15.25;78.61
32735;BME280;19112;51.076;3.706;2023-09-30T03:53:17;102006.69;;;12.86;78.18
32735;BME280;19112;51.076;3.706;2023-09-30T03:55:51;101756.91;;;11.52;78.00
32735;BME280;19112;51.076;3.706;2023-09-30T03:58:23;101864.28;;;12.20;78.43
32735;BME280;19112;51.076;3.706;2023-09-30T04:00:53;102436.25;;;15.41;78.59
32735;BME280;19112;51.076;3.706;2023-09-30T04:03:23;102460.06;;;15.41;78.61
32735;BME280;19112;51.076;3.706;2023-09-30T04:06:09;102023.41;;;12.87;78.05
32735;BME280;19112;51.076;3.706;2023-09-30T04:08:56;102136.88;;;13.70;78.54
32735;BME280;19112;51.076;3.706;2023-09-30T04:11:24;102359.25;;;14.90;78.52
32735;BME280;19112;51.076;3.706;2023-09-30T04:14:12;102434.94;;;15.30;78.69
32735;BME280;19112;51.076;3.706;2023-09-30T04:16:43;102435.63;;;15.26;78.88
32735;BME280;19112;51.076;3.706;2023-09-30T04:19:12;101990.56;;;12.57;78.57
32735;BME280;19112;51.076;3.706;2023-09-30T04:21:44;101992.47;;;12.62;78.55
32735;BME280;19112;51.076;3.706;2023-09-30T04:24:13;102071.16;;;12.94;78.60
32735;BME280;19112;51.076;3.706;2023-09-30T04:26:44;102072.00;;;12.93;78.52
32735;BME280;19112;51.076;3.706;2023-09-30T04:29:14;102436.25;;;15.18;78.71
32735;BME280;19112;51.076;3.706;2023-09-30T04:31:48;102043.28;;;12.78;78.95
32735;BME280;19112;51.076;3.706;2023-09-30T04:34:15;101816.56;;;11.53;79.06
32735;BME280;19112;51.076;3.706;2023-09-30T04:36:45;101993.22;;;12.38;79.28
32735;BME280;19112;51.076;3.706;2023-09-30T04:39:20;102497.81;;;15.14;79.33
32735;BME280;19112;51.076;3.706;2023-09-30T04:41:59;102002.69;;;12.54;79.19
32735;BME280;19112;51.076;3.706;2023-09-30T04:44:38;102042.44;;;12.79;79.11
32735;BME280;19112;51.076;3.706;2023-09-30T04:47:29;102047.97;;;12.85;79.11
32735;BME280;19112;51.076;3.706;2023-09-30T04:50:13;101688.59;;;10.74;78.96
32735;BME280;19112;51.076;3.706;2023-09-30T04:53:09;102149.84;;;13.24;79.52
32735;BME280;19112;51.076;3.706;2023-09-30T04:55:37;102039.41;;;12.70;79.38
32735;BME280;19112;51.076;3.706;2023-09-30T04:58:05;102026.38;;;12.73;79.21
32735;BME280;19112;51.076;3.706;2023-09-30T05:00:32;101904.84;;;11.85;79.11
32735;BME280;19112;51.076;3.706;2023-09-30T05:03:05;101998.00;;;12.47;78.88
32735;BME280;19112;51.076;3.706;2023-09-30T05:05:43;101990.00;;;12.45;79.06
32735;BME280;19112;51.076;3.706;2023-09-30T05:08:12;102066.38;;;12.84;78.93
32735;BME280;19112;51.076;3.706;2023-09-30T05:10:46;102441.22;;;15.11;79.13
32735;BME280;19112;51.076;3.706;2023-09-30T05:13:14;102223.28;;;13.74;78.70
32735;BME280;19112;51.076;3.706;2023-09-30T05:16:02;102467.72;;;15.12;78.66
32735;BME280;19112;51.076;3.706;2023-09-30T05:18:41;102012.81;;;12.45;78.36
32735;BME280;19112;51.076;3.706;2023-09-30T05:21:29;102471.75;;;15.03;78.71
32735;BME280;19112;51.076;3.706;2023-09-30T05:24:24;102059.16;;;12.80;78.38
32735;BME280;19112;51.076;3.706;2023-09-30T05:27:03;101994.03;;;12.18;78.23
32735;BME280;19112;51.076;3.706;2023-09-30T05:29:29;102488.16;;;14.94;78.45
32735;BME280;19112;51.076;3.706;2023-09-30T05:32:04;101951.66;;;12.12;78.07
32735;BME280;19112;51.076;3.706;2023-09-30T05:34:33;101831.16;;;11.27;77.80
32735;BME280;19112;51.076;3.706;2023-09-30T05:36:59;101823.38;;;11.11;78.17
32735;BME280;19112;51.076;3.706;2023-09-30T05:39:30;101844.44;;;11.49;78.11
32735;BME280;19112;51.076;3.706;2023-09-30T05:42:09;102073.59;;;12.49;78.44
32735;BME280;19112;51.076;3.706;2023-09-30T05:44:41;102505.50;;;14.87;78.96
32735;BME280;19112;51.076;3.706;2023-09-30T05:47:11;102046.50;;;12.32;78.67
32735;BME280;19112;51.076;3.706;2023-09-30T05:50:01;102455.38;;;14.90;78.98
32735;BME280;19112;51.076;3.706;2023-09-30T05:52:34;102448.28;;;14.89;78.87
32735;BME280;19112;51.076;3.706;2023-09-30T05:55:03;101993.34;;;12.22;78.42
32735;BME280;19112;51.076;3.706;2023-09-30T05:57:33;102045.69;;;12.53;78.61
32735;BME280;19112;51.076;3.706;2023-09-30T06:00:18;101976.81;;;12.05;79.02
32735;BME280;19112;51.076;3.706;2023-09-30T06:02:57;101895.25;;;11.48;79.13
32735;BME280;19112;51.076;3.706;2023-09-30T06:05:30;102063.22;;;12.33;79.48
32735;BME280;19112;51.076;3.706;2023-09-30T06:08:14;102054.25;;;12.49;79.51
32735;BME280;19112;51.076;3.706;2023-09-30T06:10:43;102509.25;;;14.92;79.64
32735;BME280;19112;51.076;3.706;2023-09-30T06:13:12;102197.25;;;13.22;79.73
32735;BME280;19112;51.076;3.706;2023-09-30T06:15:41;102108.53;;;12.65;79.56
32735;BME280;19112;51.076;3.706;2023-09-30T06:18:09;102518.97;;;14.93;79.91
32735;BME280;19112;51.076;3.706;2023-09-30T06:20:40;102502.47;;;14.99;80.19
32735;BME280;19112;51.076;3.706;2023-09-30T06:23:11;102384.28;;;14.14;80.09
32735;BME280;19112;51.076;3.706;2023-09-30T06:25:42;102086.41;;;12.61;79.83
32735;BME280;19112;51.076;3.706;2023-09-30T06:28:18;101951.16;;;11.82;79.59
32735;BME280;19112;51.076;3.706;2023-09-30T06:30:48;101811.75;;;11.06;79.67
32735;BME280;19112;51.076;3.706;2023-09-30T06:33:28;102334.09;;;14.14;79.75
32735;BME280;19112;51.076;3.706;2023-09-30T06:35:59;102060.59;;;12.52;79.76
32735;BME280;19112;51.076;3.706;2023-09-30T06:38:34;102123.66;;;13.09;79.64
32735;BME280;19112;51.076;3.706;2023-09-30T06:41:22;102241.00;;;13.57;79.79
32735;BME280;19112;51.076;3.706;2023-09-30T06:44:11;102288.94;;;14.08;79.65
32735;BME280;19112;51.076;3.706;2023-09-30T06:46:39;102514.53;;;15.13;79.95
32735;BME280;19112;51.076;3.706;2023-09-30T06:49:06;102370.44;;;14.41;79.99
32735;BME280;19112;51.076;3.706;2023-09-30T06:51:49;102148.44;;;13.13;79.64
32735;BME280;19112;51.076;3.706;2023-09-30T06:54:23;102538.25;;;15.55;79.81
32735;BME280;19112;51.076;3.706;2023-09-30T06:56:59;101964.50;;;12.04;79.53
32735;BME280;19112;51.076;3.706;2023-09-30T06:59:48;102175.84;;;13.35;79.21
32735;BME280;19112;51.076;3.706;2023-09-30T07:02:17;102540.56;;;15.67;79.56
32735;BME280;19112;51.076;3.706;2023-09-30T07:04:57;102143.34;;;13.57;79.63
32735;BME280;19112;51.076;3.706;2023-09-30T07:07:23;101909.31;;;12.07;79.30
32735;BME280;19112;51.076;3.706;2023-09-30T07:09:53;102155.28;;;13.48;79.43
32735;BME280;19112;51.076;3.706;2023-09-30T07:12:19;102159.59;;;13.67;79.50
32735;BME280;19112;51.076;3.706;2023-09-30T07:14:47;102184.47;;;13.73;79.53
32735;BME280;19112;51.076;3.706;2023-09-30T07:17:25;102587.97;;;16.06;79.64
32735;BME280;19112;51.076;3.706;2023-09-30T07:19:55;102553.59;;;16.07;79.74
32735;BME280;19112;51.076;3.706;2023-09-30T07:22:41;102249.84;;;14.43;79.09
32735;BME280;19112;51.076;3.706;2023-09-30T07:25:29;102180.09;;;13.95;79.46
32735;BME280;19112;51.076;3.706;2023-09-30T07:27:59;102116.50;;;13.68;79.30
32735;BME280;19112;51.076;3.706;2023-09-30T07:30:36;102008.91;;;12.96;79.44
32735;BME280;19112;51.076;3.706;2023-09-30T07:33:14;102183.91;;;14.01;78.92
32735;BME280;19112;51.076;3.706;2023-09-30T07:35:45;102013.13;;;12.93;78.98
32735;BME280;19112;51.076;3.706;2023-09-30T07:38:11;102587.28;;;16.34;79.43
32735;BME280;19112;51.076;3.706;2023-09-30T07:40:39;102056.44;;;13.40;79.20
32735;BME280;19112;51.076;3.706;2023-09-30T07:43:15;102572.06;;;16.52;79.27
32735;BME280;19112;51.076;3.706;2023-09-30T07:45:48;102200.16;;;14.33;78.99
32735;BME280;19112;51.076;3.706;2023-09-30T07:48:21;102191.84;;;14.24;78.95
32735;BME280;19112;51.076;3.706;2023-09-30T07:50:50;102407.66;;;15.77;79.09
32735;BME280;19112;51.076;3.706;2023-09-30T07:53:19;102006.13;;;13.35;78.62
32735;BME280;19112;51.076;3.706;2023-09-30T07:55:52;102597.19;;;16.86;78.88
32735;BME280;19112;51.076;3.706;2023-09-30T07:58:43;102198.69;;;14.63;78.35
32735;BME280;19112;51.076;3.706;2023-09-30T08:01:12;102224.06;;;14.81;78.69
32735;BME280;19112;51.076;3.706;2023-09-30T08:03:45;102585.69;;;17.11;78.98
32735;BME280;19112;51.076;3.706;2023-09-30T08:06:14;102263.66;;;15.26;78.67
32735;BME280;19112;51.076;3.706;2023-09-30T08:08:47;102155.63;;;14.90;78.71
32735;BME280;19112;51.076;3.706;2023-09-30T08:11:38;102212.16;;;15.41;78.12
32735;BME280;19112;51.076;3.706;2023-09-30T08:14:06;102469.59;;;17.05;78.87
32735;BME280;19112;51.076;3.706;2023-09-30T08:16:59;102603.03;;;18.08;77.90
32735;BME280;19112;51.076;3.706;2023-09-30T08:19:49;102576.13;;;18.27;77.92
32735;BME280;19112;51.076;3.706;2023-09-30T08:22:31;102246.84;;;16.26;76.86
32735;BME280;19112;51.076;3.706;2023-09-30T08:25:22;102568.72;;;18.47;76.46
32735;BME280;19112;51.076;3.706;2023-09-30T08:27:55;102191.56;;;16.38;75.92
32735;BME280;19112;51.076;3.706;2023-09-30T08:30:25;102561.63;;;18.47;75.75
32735;BME280;19112;51.076;3.706;2023-09-30T08:33:27;102560.66;;;18.44;75.36
32735;BME280;19112;51.076;3.706;2023-09-30T08:36:12;102229.16;;;16.53;75.31
32735;BME280;19112;51.076;3.706;2023-09-30T08:38:58;102059.53;;;15.40;75.15
32735;BME280;19112;51.076;3.706;2023-09-30T08:42:20;102187.34;;;16.16;75.77
32735;BME280;19112;51.076;3.706;2023-09-30T08:45:41;102330.91;;;17.12;75.41
32735;BME280;19112;51.076;3.706;2023-09-30T08:48:54;102193.34;;;16.39;75.46
32735;BME280;19112;51.076;3.706;2023-09-30T08:52:31;102262.53;;;17.03;74.57
32735;BME280;19112;51.076;3.706;2023-09-30T08:55:46;102046.13;;;15.90;74.76
32735;BME280;19112;51.076;3.706;2023-09-30T08:58:43;102240.53;;;17.08;75.21
32735;BME280;19112;51.076;3.706;2023-09-30T09:01:13;102266.41;;;17.15;75.58
32735;BME280;19112;51.076;3.706;2023-09-30T09:04:14;102265.19;;;17.34;74.50
32735;BME280;19112;51.076;3.706;2023-09-30T09:07:05;102247.03;;;17.49;74.22
32735;BME280;19112;51.076;3.706;2023-09-30T09:10:06;102601.03;;;19.60;73.73
32735;BME280;19112;51.076;3.706;2023-09-30T09:13:49;102132.91;;;16.86;73.80
32735;BME280;19112;51.076;3.706;2023-09-30T09:16:48;102634.38;;;19.79;74.00
32735;BME280;19112;51.076;3.706;2023-09-30T09:20:04;102628.91;;;20.10;74.09
32735;BME280;19112;51.076;3.706;2023-09-30T09:23:10;102507.09;;;19.69;73.49
32735;BME280;19112;51.076;3.706;2023-09-30T09:26:04;102106.19;;;17.46;72.61
32735;BME280;19112;51.076;3.706;2023-09-30T09:29:18;102100.28;;;17.58;72.52
32735;BME280;19112;51.076;3.706;2023-09-30T09:33:04;102023.66;;;17.00;70.75
32735;BME280;19112;51.076;3.706;2023-09-30T09:39:16;102296.63;;;18.87;71.52
32735;BME280;19112;51.076;3.706;2023-09-30T09:42:52;102299.53;;;19.40;72.43
32735;BME280;19112;51.076;3.706;2023-09-30T09:46:07;102321.41;;;19.68;70.28
32735;BME280;19112;51.076;3.706;2023-09-30T09:51:51;102654.44;;;21.78;70.47
32735;BME280;19112;51.076;3.706;2023-09-30T09:54:47;102351.00;;;20.30;69.46
32735;BME280;19112;51.076;3.706;2023-09-30T09:57:37;102544.41;;;21.52;68.62
32735;BME280;19112;51.076;3.706;2023-09-30T10:00:48;102326.84;;;20.22;67.81
32735;BME280;19112;51.076;3.706;2023-09-30T10:03:38;102648.00;;;22.22;67.64
32735;BME280;19112;51.076;3.706;2023-09-30T10:06:15;102325.22;;;20.30;66.82
32735;BME280;19112;51.076;3.706;2023-09-30T10:08:50;102235.50;;;19.82;66.27
32735;BME280;19112;51.076;3.706;2023-09-30T10:11:22;102314.44;;;20.24;66.24
32735;BME280;19112;51.076;3.706;2023-09-30T10:14:09;102066.72;;;18.80;66.34
32735;BME280;19112;51.076;3.706;2023-09-30T10:17:05;102636.94;;;22.00;66.39
32735;BME280;19112;51.076;3.706;2023-09-30T10:22:29;102254.38;;;19.95;65.91
32735;BME280;19112;51.076;3.706;2023-09-30T10:29:39;102620.03;;;22.02;65.62
32735;BME280;19112;51.076;3.706;2023-09-30T10:35:49;102603.59;;;21.76;66.19
32735;BME280;19112;51.076;3.706;2023-09-30T10:38:41;102625.00;;;21.76;66.30
32735;BME280;19112;51.076;3.706;2023-09-30T10:41:55;102601.84;;;21.78;66.27
32735;BME280;19112;51.076;3.706;2023-09-30T10:44:46;102620.38;;;21.67;66.28
32735;BME280;19112;51.076;3.706;2023-09-30T10:49:59;102605.13;;;21.59;65.99
32735;BME280;19112;51.076;3.706;2023-09-30T10:52:47;102259.66;;;19.45;66.36
32735;BME280;19112;51.076;3.706;2023-09-30T10:55:34;102279.69;;;19.70;66.08
32735;BME280;19112;51.076;3.706;2023-09-30T10:59:10;102595.47;;;21.68;66.29
32735;BME280;19112;51.076;3.706;2023-09-30T11:02:28;102234.34;;;19.67;65.92
32735;BME280;19112;51.076;3.706;2023-09-30T11:05:07;102223.69;;;19.67;64.92
32735;BME280;19112;51.076;3.706;2023-09-30T11:08:07;102512.78;;;21.25;65.38
32735;BME280;19112;51.076;3.706;2023-09-30T11:11:42;102216.59;;;19.67;64.81
32735;BME280;19112;51.076;3.706;2023-09-30T11:15:13;102586.81;;;21.86;65.31
32735;BME280;19112;51.076;3.706;2023-09-30T11:18:42;102173.00;;;19.65;64.25
32735;BME280;19112;51.076;3.706;2023-09-30T11:21:16;102593.88;;;21.83;64.18
32735;BME280;19112;51.076;3.706;2023-09-30T11:24:01;102241.13;;;19.98;63.90
32735;BME280;19112;51.076;3.706;2023-09-30T11:26:54;102252.81;;;20.07;63.75
32735;BME280;19112;51.076;3.706;2023-09-30T11:30:17;102567.50;;;22.06;63.84
32735;BME280;19112;51.076;3.706;2023-09-30T11:33:02;102565.81;;;22.11;63.54
32735;BME280;19112;51.076;3.706;2023-09-30T11:35:31;102286.41;;;20.48;62.85
32735;BME280;19112;51.076;3.706;2023-09-30T11:39:02;102566.97;;;22.33;62.56
32735;BME280;19112;51.076;3.706;2023-09-30T11:42:00;102124.56;;;19.91;61.44
32735;BME280;19112;51.076;3.706;2023-09-30T11:44:31;102232.38;;;20.65;61.02
32735;BME280;19112;51.076;3.706;2023-09-30T11:47:35;102018.25;;;19.54;60.05
32735;BME280;19112;51.076;3.706;2023-09-30T11:50:18;102337.81;;;21.62;59.13
32735;BME280;19112;51.076;3.706;2023-09-30T11:52:48;102225.94;;;21.16;58.10
32735;BME280;19112;51.076;3.706;2023-09-30T11:55:33;102170.66;;;21.09;58.39
32735;BME280;19112;51.076;3.706;2023-09-30T11:58:08;102550.28;;;23.51;57.43
32735;BME280;19112;51.076;3.706;2023-09-30T12:01:01;102539.66;;;23.63;57.02
32735;BME280;19112;51.076;3.706;2023-09-30T12:04:13;102098.69;;;21.26;55.79
32735;BME280;19112;51.076;3.706;2023-09-30T12:06:43;102561.25;;;23.86;55.57
32735;BME280;19112;51.076;3.706;2023-09-30T12:09:16;102546.94;;;23.81;55.31
32735;BME280;19112;51.076;3.706;2023-09-30T12:11:47;102505.72;;;23.68;53.09
32735;BME280;19112;51.076;3.706;2023-09-30T12:14:21;102536.31;;;24.05;53.33
32735;BME280;19112;51.076;3.706;2023-09-30T12:17:10;102404.59;;;23.50;51.23
32735;BME280;19112;51.076;3.706;2023-09-30T12:19:45;102539.13;;;24.35;51.61
32735;BME280;19112;51.076;3.706;2023-09-30T12:23:00;102531.13;;;24.48;51.46
32735;BME280;19112;51.076;3.706;2023-09-30T12:25:34;102262.09;;;22.65;50.26
32735;BME280;19112;51.076;3.706;2023-09-30T12:28:37;102150.28;;;22.22;49.82
32735;BME280;19112;51.076;3.706;2023-09-30T12:31:40;102349.06;;;23.33;48.73
32735;BME280;19112;51.076;3.706;2023-09-30T12:34:18;102251.53;;;22.92;49.57
32735;BME280;19112;51.076;3.706;2023-09-30T12:37:09;102342.97;;;23.63;49.10
32735;BME280;19112;51.076;3.706;2023-09-30T12:39:42;102547.31;;;24.91;48.83
32735;BME280;19112;51.076;3.706;2023-09-30T12:42:12;102100.19;;;22.03;49.01
32735;BME280;19112;51.076;3.706;2023-09-30T12:44:47;102120.00;;;22.28;48.58
32735;BME280;19112;51.076;3.706;2023-09-30T12:47:35;102157.56;;;22.43;47.65
32735;BME280;19112;51.076;3.706;2023-09-30T12:50:24;102171.03;;;22.65;46.87
32735;BME280;19112;51.076;3.706;2023-09-30T12:53:20;102532.94;;;24.71;48.07
32735;BME280;19112;51.076;3.706;2023-09-30T12:56:08;102126.25;;;22.30;48.72
32735;BME280;19112;51.076;3.706;2023-09-30T12:58:42;102188.88;;;22.67;47.79
32735;BME280;19112;51.076;3.706;2023-09-30T13:01:26;102223.94;;;23.13;48.19
32735;BME280;19112;51.076;3.706;2023-09-30T13:03:58;102221.25;;;23.13;46.96
32735;BME280;19112;51.076;3.706;2023-09-30T13:06:27;102186.41;;;23.03;47.14
32735;BME280;19112;51.076;3.706;2023-09-30T13:09:11;102203.44;;;23.38;45.53
32735;BME280;19112;51.076;3.706;2023-09-30T13:11:43;102536.56;;;25.40;46.73
32735;BME280;19112;51.076;3.706;2023-09-30T13:14:29;102153.38;;;23.16;44.33
32735;BME280;19112;51.076;3.706;2023-09-30T13:16:55;102220.47;;;23.57;45.44
32735;BME280;19112;51.076;3.706;2023-09-30T13:19:25;102212.44;;;23.49;46.40
32735;BME280;19112;51.076;3.706;2023-09-30T13:21:53;102514.22;;;25.11;45.29
32735;BME280;19112;51.076;3.706;2023-09-30T13:24:28;102449.66;;;24.80;45.11
32735;BME280;19112;51.076;3.706;2023-09-30T13:27:23;102191.81;;;23.32;46.00
32735;BME280;19112;51.076;3.706;2023-09-30T13:29:55;101926.22;;;21.71;46.35
32735;BME280;19112;51.076;3.706;2023-09-30T13:32:38;102280.41;;;23.74;46.96
32735;BME280;19112;51.076;3.706;2023-09-30T13:35:12;102477.44;;;24.97;47.01
32735;BME280;19112;51.076;3.706;2023-09-30T13:37:40;102021.03;;;22.43;44.92
32735;BME280;19112;51.076;3.706;2023-09-30T13:40:10;102414.72;;;24.60;45.90
32735;BME280;19112;51.076;3.706;2023-09-30T13:42:42;102153.38;;;23.26;46.10
32735;BME280;19112;51.076;3.706;2023-09-30T13:45:12;102453.25;;;25.08;45.65
32735;BME280;19112;51.076;3.706;2023-09-30T13:47:41;102455.97;;;25.14;45.71
32735;BME280;19112;51.076;3.706;2023-09-30T13:50:15;102383.38;;;24.76;44.27
32735;BME280;19112;51.076;3.706;2023-09-30T13:52:42;102445.19;;;25.13;45.35
32735;BME280;19112;51.076;3.706;2023-09-30T13:55:10;102036.22;;;22.51;44.58
32735;BME280;19112;51.076;3.706;2023-09-30T13:57:38;102100.69;;;23.19;45.00
32735;BME280;19112;51.076;3.706;2023-09-30T14:00:12;102239.28;;;23.80;45.16
32735;BME280;19112;51.076;3.706;2023-09-30T14:02:52;102119.41;;;23.06;45.43
32735;BME280;19112;51.076;3.706;2023-09-30T14:05:26;102167.69;;;23.32;45.48
32735;BME280;19112;51.076;3.706;2023-09-30T14:08:11;102038.94;;;22.66;46.02
32735;BME280;19112;51.076;3.706;2023-09-30T14:10:51;102481.03;;;24.99;45.92
32735;BME280;19112;51.076;3.706;2023-09-30T14:13:39;102443.38;;;24.96;46.33
32735;BME280;19112;51.076;3.706;2023-09-30T14:16:09;102116.75;;;23.09;46.47
32735;BME280;19112;51.076;3.706;2023-09-30T14:18:38;102427.28;;;24.82;46.92